Time;durP1;ratioP1;P1;durP2;ratioP2;P2;SDS_P1;SDS_P2;PMS_P1;PMS_P2;Temp;Humidity;BMP_temperature;BMP_pressure;BME280_temperature;BME280_humidity;BME280_pressure;Samples;Min_cycle;Max_cycle;Signal;HPM_P1;HPM_P2
2023/12/15 00:02:00;;;;;;;26.80;13.65;;;8.10;99.90;;;;;;6394878;22;20054;-93
2023/12/15 00:04:33;;;;;;;22.38;14.00;;;8.20;99.90;;;;;;6388604;22;19998;-94
2023/12/15 00:06:59;;;;;;;27.23;14.50;;;7.90;99.90;;;;;;6388249;22;20400;-93
2023/12/15 00:09:28;;;;;;;23.50;13.15;;;8.00;99.90;;;;;;6391619;22;19998;-94
2023/12/15 00:11:54;;;;;;;22.88;13.80;;;8.00;99.90;;;;;;6367375;22;20025;-92
2023/12/15 00:14:19;;;;;;;28.58;13.27;;;8.00;99.90;;;;;;6357736;22;20002;-93
2023/12/15 00:16:47;;;;;;;23.42;16.08;;;9.00;99.90;;;;;;6379453;22;20005;-93
2023/12/15 00:19:15;;;;;;;24.27;13.93;;;8.00;99.90;;;;;;6378197;22;20002;-92
2023/12/15 00:21:45;;;;;;;26.55;14.40;;;8.70;99.90;;;;;;6388305;22;20015;-93
2023/12/15 00:24:23;;;;;;;26.70;15.75;;;8.30;99.90;;;;;;6362977;22;20010;-92
2023/12/15 00:27:03;;;;;;;26.45;14.60;;;8.00;99.90;;;;;;6384119;22;20014;-92
2023/12/15 00:29:30;;;;;;;28.90;15.43;;;8.00;99.90;;;;;;6383093;22;20005;-94
2023/12/15 00:31:58;;;;;;;31.45;16.05;;;8.00;99.90;;;;;;6398234;22;20005;-93
2023/12/15 00:34:36;;;;;;;28.75;15.18;;;8.60;99.90;;;;;;6400476;22;19998;-93
2023/12/15 00:37:02;;;;;;;36.38;16.45;;;7.40;99.90;;;;;;6391731;22;20006;-93
2023/12/15 00:39:29;;;;;;;28.67;15.23;;;8.00;99.90;;;;;;6377748;22;20002;-93
2023/12/15 00:41:57;;;;;;;32.70;17.10;;;8.80;99.90;;;;;;6376311;22;19994;-92
2023/12/15 00:44:34;;;;;;;35.58;16.75;;;8.00;99.90;;;;;;6375876;22;20017;-92
2023/12/15 00:47:07;;;;;;;29.70;17.27;;;8.70;99.90;;;;;;6381466;22;20010;-93
2023/12/15 00:50:05;;;;;;;38.92;18.13;;;7.30;99.90;;;;;;6399651;22;19990;-93
2023/12/15 00:52:51;;;;;;;30.63;16.55;;;8.10;99.90;;;;;;6378075;22;19990;-94
2023/12/15 00:55:18;;;;;;;43.65;19.58;;;8.50;99.90;;;;;;6371749;22;20005;-93
2023/12/15 00:57:54;;;;;;;33.67;17.35;;;8.00;99.90;;;;;;6387223;22;20001;-94
2023/12/15 01:00:43;;;;;;;35.25;17.38;;;8.00;99.90;;;;;;6364222;22;20021;-94
2023/12/15 01:03:40;;;;;;;30.42;18.15;;;8.10;99.90;;;;;;6393381;22;20028;-93
2023/12/15 01:06:25;;;;;;;36.70;19.58;;;9.00;99.90;;;;;;6389952;22;20016;-93
2023/12/15 01:08:50;;;;;;;35.42;18.52;;;8.60;99.90;;;;;;6389367;22;20036;-93
2023/12/15 01:11:19;;;;;;;51.03;19.45;;;7.90;99.90;;;;;;6351879;22;19995;-94
2023/12/15 01:13:44;;;;;;;34.47;18.20;;;8.10;99.90;;;;;;6381313;22;19999;-95
2023/12/15 01:16:10;;;;;;;40.17;18.20;;;8.00;99.90;;;;;;6376594;22;20073;-94
2023/12/15 01:18:43;;;;;;;35.85;20.00;;;8.70;99.90;;;;;;6376085;22;19998;-94
2023/12/15 01:21:08;;;;;;;35.25;19.33;;;8.30;99.90;;;;;;6380592;22;20078;-93
2023/12/15 01:23:35;;;;;;;35.53;18.52;;;8.10;99.90;;;;;;6374054;22;19995;-94
2023/12/15 01:26:02;;;;;;;58.33;20.05;;;8.30;99.90;;;;;;6375322;22;20491;-93
2023/12/15 01:28:27;;;;;;;41.70;20.60;;;8.10;99.90;;;;;;6374855;22;19994;-94
2023/12/15 01:31:02;;;;;;;40.65;20.65;;;8.90;99.90;;;;;;6373927;22;20441;-95
2023/12/15 01:33:32;;;;;;;31.20;19.17;;;8.40;99.90;;;;;;6373965;22;20014;-94
2023/12/15 01:35:58;;;;;;;41.13;20.10;;;8.90;99.90;;;;;;6375292;22;20016;-94
2023/12/15 01:38:23;;;;;;;40.20;20.42;;;9.00;99.90;;;;;;6375004;22;20026;-94
2023/12/15 01:40:50;;;;;;;38.42;20.27;;;9.10;99.90;;;;;;6375240;22;20014;-95
2023/12/15 01:43:20;;;;;;;34.38;20.20;;;8.90;99.90;;;;;;6382205;22;20006;-95
2023/12/15 01:45:56;;;;;;;45.57;21.33;;;8.70;99.90;;;;;;6388508;22;19998;-94
2023/12/15 01:48:32;;;;;;;33.83;20.65;;;8.70;99.90;;;;;;6400174;22;19994;-94
2023/12/15 01:51:11;;;;;;;37.03;20.20;;;8.20;99.90;;;;;;6368188;22;20002;-94
2023/12/15 01:53:55;;;;;;;41.95;21.17;;;8.20;99.90;;;;;;6382393;22;20079;-95
2023/12/15 01:56:27;;;;;;;35.85;19.75;;;7.80;99.90;;;;;;6383635;22;19994;-94
2023/12/15 01:59:37;;;;;;;41.60;20.23;;;8.30;99.90;;;;;;6393371;22;20007;-94
2023/12/15 02:02:12;;;;;;;40.90;19.00;;;8.30;99.90;;;;;;6382501;22;19982;-94
2023/12/15 02:04:41;;;;;;;33.63;18.95;;;8.30;99.90;;;;;;6388711;22;20010;-96
2023/12/15 02:07:18;;;;;;;30.52;18.95;;;8.30;99.90;;;;;;6361253;22;20014;-94
2023/12/15 02:13:35;;;;;;;33.88;18.83;;;8.30;99.90;;;;;;6397039;22;20028;-94
2023/12/15 02:16:22;;;;;;;36.38;19.33;;;8.30;99.90;;;;;;6317163;22;20009;-94
2023/12/15 02:18:50;;;;;;;35.13;18.77;;;9.20;99.90;;;;;;6384118;22;20066;-93
2023/12/15 02:21:15;;;;;;;35.22;18.70;;;8.50;99.90;;;;;;6378480;22;20014;-94
2023/12/15 02:23:41;;;;;;;29.98;18.65;;;8.20;99.90;;;;;;6373861;22;20334;-94
2023/12/15 02:26:20;;;;;;;30.00;17.88;;;9.00;99.90;;;;;;6372698;22;20010;-93
2023/12/15 02:28:46;;;;;;;26.48;18.40;;;8.90;99.90;;;;;;6375563;22;20013;-93
2023/12/15 02:31:12;;;;;;;32.00;19.60;;;8.30;99.90;;;;;;6373177;22;20006;-93
2023/12/15 02:33:37;;;;;;;30.83;17.73;;;9.20;99.90;;;;;;6371680;22;20007;-95
2023/12/15 02:36:03;;;;;;;31.33;19.50;;;9.20;99.90;;;;;;6371836;22;20006;-94
2023/12/15 02:38:29;;;;;;;34.45;18.02;;;8.30;99.90;;;;;;6371338;22;20002;-92
2023/12/15 02:40:56;;;;;;;27.75;18.02;;;8.40;99.90;;;;;;6378548;22;19986;-92
2023/12/15 02:43:22;;;;;;;28.83;17.60;;;9.30;99.90;;;;;;6387890;22;20299;-92
2023/12/15 02:45:48;;;;;;;26.52;17.58;;;8.30;99.90;;;;;;6375172;22;20010;-93
2023/12/15 02:48:14;;;;;;;30.25;18.88;;;7.80;99.90;;;;;;6371925;22;19995;-94
2023/12/15 02:50:40;;;;;;;26.38;17.75;;;8.30;99.90;;;;;;6370782;22;20059;-94
2023/12/15 02:53:06;;;;;;;26.92;17.48;;;8.30;99.90;;;;;;6371977;22;19998;-91
2023/12/15 02:55:32;;;;;;;23.13;17.48;;;8.30;99.90;;;;;;6371473;22;20009;-94
2023/12/15 02:57:58;;;;;;;24.75;17.27;;;8.30;99.90;;;;;;6371225;22;19998;-93
2023/12/15 03:00:23;;;;;;;34.72;17.98;;;8.30;99.90;;;;;;6369798;22;20010;-92
2023/12/15 03:02:49;;;;;;;31.15;16.80;;;8.50;99.90;;;;;;6370294;22;20376;-93
2023/12/15 03:05:14;;;;;;;28.92;17.02;;;8.30;99.90;;;;;;6371857;22;20058;-93
2023/12/15 03:07:40;;;;;;;25.73;16.33;;;8.30;99.90;;;;;;6387479;22;20003;-91
2023/12/15 03:10:06;;;;;;;29.50;17.08;;;8.20;99.90;;;;;;6373690;22;20426;-92
2023/12/15 03:12:33;;;;;;;29.73;16.88;;;8.20;99.90;;;;;;6372307;22;20433;-94
2023/12/15 03:14:59;;;;;;;30.85;18.48;;;8.20;99.90;;;;;;6371375;22;19998;-91
2023/12/15 03:17:24;;;;;;;26.92;17.05;;;8.20;99.90;;;;;;6370924;22;20048;-91
2023/12/15 03:19:50;;;;;;;27.67;18.08;;;8.20;99.90;;;;;;6371778;22;19998;-92
2023/12/15 03:22:16;;;;;;;28.63;18.73;;;8.10;99.90;;;;;;6370735;22;20013;-92
2023/12/15 03:24:41;;;;;;;30.38;18.35;;;8.10;99.90;;;;;;6370601;22;19999;-92
2023/12/15 03:27:08;;;;;;;26.73;17.58;;;8.60;99.90;;;;;;6372431;22;20037;-93
2023/12/15 03:29:33;;;;;;;28.92;17.10;;;8.10;99.90;;;;;;6390774;22;19997;-93
2023/12/15 03:32:00;;;;;;;59.00;18.23;;;8.10;99.90;;;;;;6391585;22;20419;-93
2023/12/15 03:34:25;;;;;;;24.52;16.85;;;8.10;99.90;;;;;;6374532;22;20019;-93
2023/12/15 03:36:52;;;;;;;31.95;18.02;;;8.10;99.90;;;;;;6397352;22;20010;-94
2023/12/15 03:39:18;;;;;;;28.20;17.45;;;8.20;99.90;;;;;;6391386;22;20013;-94
2023/12/15 03:41:43;;;;;;;28.02;17.42;;;8.20;99.90;;;;;;6375944;22;20003;-94
2023/12/15 03:44:10;;;;;;;24.50;16.92;;;8.20;99.90;;;;;;6372468;22;19998;-94
2023/12/15 03:46:36;;;;;;;30.88;17.33;;;8.10;99.90;;;;;;6372916;22;20442;-94
2023/12/15 03:49:02;;;;;;;34.00;18.67;;;8.20;99.90;;;;;;6372573;22;19994;-95
2023/12/15 03:51:27;;;;;;;26.88;17.83;;;8.20;99.90;;;;;;6372921;22;20002;-94
2023/12/15 03:53:53;;;;;;;32.10;17.17;;;8.20;99.90;;;;;;6371800;22;19998;-92
2023/12/15 03:56:25;;;;;;;32.88;17.65;;;8.10;99.90;;;;;;6372121;22;20061;-94
2023/12/15 03:58:52;;;;;;;23.88;17.05;;;8.20;99.90;;;;;;6372100;22;20027;-93
2023/12/15 04:01:18;;;;;;;25.90;17.15;;;8.20;99.90;;;;;;6375633;22;20006;-95
2023/12/15 04:03:45;;;;;;;24.80;16.15;;;8.20;99.90;;;;;;6378028;22;20002;-94
2023/12/15 04:06:10;;;;;;;26.13;17.17;;;8.20;99.90;;;;;;6393897;22;20018;-92
2023/12/15 04:08:36;;;;;;;28.63;17.33;;;8.20;99.90;;;;;;6374812;22;19998;-94
2023/12/15 04:11:01;;;;;;;25.42;16.63;;;8.20;99.90;;;;;;6372966;22;20002;-92
2023/12/15 04:13:27;;;;;;;29.25;16.75;;;8.20;99.90;;;;;;6380513;22;20002;-94
2023/12/15 04:15:53;;;;;;;36.80;17.33;;;8.20;99.90;;;;;;6374281;22;20010;-94
2023/12/15 04:18:19;;;;;;;26.27;15.93;;;8.20;99.90;;;;;;6373867;22;20005;-92
2023/12/15 04:20:44;;;;;;;31.95;18.70;;;8.20;99.90;;;;;;6373033;22;20005;-92
2023/12/15 04:23:10;;;;;;;31.23;16.98;;;8.10;99.90;;;;;;6372308;22;20014;-94
2023/12/15 04:25:35;;;;;;;30.45;16.25;;;8.10;99.90;;;;;;6374080;22;20022;-94
2023/12/15 04:28:02;;;;;;;29.33;17.15;;;8.20;99.90;;;;;;6373381;22;20024;-93
2023/12/15 04:30:27;;;;;;;35.20;18.55;;;8.20;99.90;;;;;;6380511;22;19990;-94
2023/12/15 04:32:53;;;;;;;23.90;15.75;;;8.20;99.90;;;;;;6399002;22;20006;-93
2023/12/15 04:35:19;;;;;;;28.05;16.02;;;8.20;99.90;;;;;;6390837;22;20010;-94
2023/12/15 04:37:46;;;;;;;33.42;18.10;;;8.30;99.90;;;;;;6372224;22;20104;-92
2023/12/15 04:40:21;;;;;;;26.17;16.42;;;8.30;99.90;;;;;;6373265;22;20230;-93
2023/12/15 04:42:46;;;;;;;27.80;16.25;;;8.30;99.90;;;;;;6372334;22;20081;-92
2023/12/15 04:45:12;;;;;;;32.47;17.38;;;8.30;99.90;;;;;;6374188;22;20025;-93
2023/12/15 04:47:38;;;;;;;27.13;15.93;;;8.30;99.90;;;;;;6373864;22;20006;-91
2023/12/15 04:50:04;;;;;;;28.98;16.75;;;8.40;99.90;;;;;;6391927;22;20001;-92
2023/12/15 04:52:29;;;;;;;27.23;16.38;;;8.30;99.90;;;;;;6389075;22;20006;-92
2023/12/15 04:54:55;;;;;;;24.75;15.18;;;8.40;99.90;;;;;;6372753;22;20002;-93
2023/12/15 04:57:20;;;;;;;27.23;16.50;;;8.40;99.90;;;;;;6372715;22;20051;-92
2023/12/15 04:59:46;;;;;;;27.38;15.70;;;8.40;99.90;;;;;;6372576;22;20052;-91
2023/12/15 05:02:12;;;;;;;28.35;15.77;;;8.40;99.90;;;;;;6373023;22;19998;-93
2023/12/15 05:04:38;;;;;;;27.65;15.00;;;8.40;99.90;;;;;;6394506;22;19982;-93
2023/12/15 05:07:04;;;;;;;32.47;15.75;;;8.50;99.90;;;;;;6374304;22;20338;-92
2023/12/15 05:09:29;;;;;;;21.35;15.27;;;8.50;99.90;;;;;;6372052;22;19999;-92
2023/12/15 05:11:55;;;;;;;32.65;15.70;;;8.40;99.90;;;;;;6372290;22;20010;-93
2023/12/15 05:14:22;;;;;;;27.65;15.95;;;8.50;99.90;;;;;;6372984;22;20426;-92
2023/12/15 05:16:48;;;;;;;32.97;17.38;;;8.50;99.90;;;;;;6371946;22;20025;-92
2023/12/15 05:19:13;;;;;;;31.65;18.25;;;8.50;99.90;;;;;;6372677;22;20326;-93
2023/12/15 05:21:39;;;;;;;28.88;16.88;;;8.40;99.90;;;;;;6373509;22;20002;-93
2023/12/15 05:24:05;;;;;;;28.50;17.20;;;8.50;99.90;;;;;;6372995;22;20013;-93
2023/12/15 05:26:30;;;;;;;35.08;17.40;;;8.50;99.90;;;;;;6398283;22;20014;-92
2023/12/15 05:28:56;;;;;;;32.65;17.63;;;8.50;99.90;;;;;;6389066;22;20006;-92
2023/12/15 05:31:22;;;;;;;31.13;16.67;;;8.40;99.90;;;;;;6372948;22;20085;-93
2023/12/15 05:33:47;;;;;;;30.35;16.52;;;8.50;99.90;;;;;;6372708;22;20011;-93
2023/12/15 05:36:20;;;;;;;39.22;17.83;;;8.50;99.90;;;;;;6373189;22;20017;-91
2023/12/15 05:38:50;;;;;;;29.30;19.05;;;8.50;99.90;;;;;;6372818;22;19998;-92
2023/12/15 05:41:17;;;;;;;26.85;17.98;;;8.40;99.90;;;;;;6372729;22;20071;-91
2023/12/15 05:43:44;;;;;;;31.73;18.20;;;8.40;99.90;;;;;;6372544;22;20006;-92
2023/12/15 05:46:09;;;;;;;27.00;18.80;;;8.40;99.90;;;;;;6371857;22;20022;-93
2023/12/15 05:48:35;;;;;;;27.75;17.85;;;8.40;99.90;;;;;;6372688;22;20424;-92
2023/12/15 05:51:02;;;;;;;25.92;18.17;;;8.30;99.90;;;;;;6372867;22;20065;-92
2023/12/15 05:53:28;;;;;;;25.48;17.38;;;8.30;99.90;;;;;;6372092;22;20005;-91
2023/12/15 05:55:55;;;;;;;30.08;17.60;;;8.30;99.90;;;;;;6375372;22;19998;-92
2023/12/15 05:58:21;;;;;;;38.80;19.55;;;8.30;99.90;;;;;;6376000;22;20430;-93
2023/12/15 06:00:49;;;;;;;34.35;18.13;;;8.40;99.90;;;;;;6368277;22;20082;-90
2023/12/15 06:03:17;;;;;;;30.15;18.30;;;8.40;99.90;;;;;;6386110;22;20010;-91
2023/12/15 06:05:43;;;;;;;41.25;18.83;;;8.40;99.90;;;;;;6372374;22;20018;-93
2023/12/15 06:08:08;;;;;;;30.05;18.23;;;8.40;99.90;;;;;;6372389;22;20061;-91
2023/12/15 06:10:34;;;;;;;25.52;16.83;;;8.40;99.90;;;;;;6392901;22;20021;-92
2023/12/15 06:12:59;;;;;;;32.33;17.92;;;8.50;99.90;;;;;;6386307;22;20005;-92
2023/12/15 06:15:25;;;;;;;28.42;15.98;;;8.40;99.90;;;;;;6370459;22;20112;-91
2023/12/15 06:17:50;;;;;;;31.33;18.25;;;8.40;99.90;;;;;;6372722;22;19998;-93
2023/12/15 06:20:17;;;;;;;28.25;17.48;;;8.40;99.90;;;;;;6391425;22;20004;-91
2023/12/15 06:22:43;;;;;;;24.17;16.02;;;8.40;99.90;;;;;;6373123;22;20029;-90
2023/12/15 06:25:10;;;;;;;33.67;16.98;;;8.40;99.90;;;;;;6370915;22;20006;-91
2023/12/15 06:27:36;;;;;;;31.50;17.45;;;8.50;99.90;;;;;;6372250;22;20020;-94
2023/12/15 06:30:02;;;;;;;25.50;15.95;;;8.40;99.90;;;;;;6371222;22;20030;-92
2023/12/15 06:32:28;;;;;;;33.85;17.42;;;8.50;99.90;;;;;;6371015;22;19998;-91
2023/12/15 06:34:54;;;;;;;31.27;17.60;;;8.40;99.90;;;;;;6375644;22;20052;-94
2023/12/15 06:37:19;;;;;;;26.10;16.15;;;8.40;99.90;;;;;;6373929;22;20002;-92
2023/12/15 06:39:45;;;;;;;32.95;16.00;;;8.40;99.90;;;;;;6373520;22;20005;-91
2023/12/15 06:42:11;;;;;;;27.45;15.65;;;8.40;99.90;;;;;;6375549;22;20559;-92
2023/12/15 06:44:37;;;;;;;29.33;16.45;;;8.50;99.90;;;;;;6373376;22;20002;-92
2023/12/15 06:47:04;;;;;;;31.05;16.23;;;8.50;99.90;;;;;;6376081;22;20016;-94
2023/12/15 06:49:30;;;;;;;37.63;17.50;;;8.50;99.90;;;;;;6373268;22;20002;-92
2023/12/15 06:51:58;;;;;;;31.05;15.13;;;8.50;99.90;;;;;;6374855;22;20003;-93
2023/12/15 06:54:26;;;;;;;26.58;15.30;;;8.50;99.90;;;;;;6373127;22;20438;-94
2023/12/15 06:57:17;;;;;;;33.97;16.60;;;8.90;99.90;;;;;;6394810;22;19987;-94
2023/12/15 07:00:06;;;;;;;;;;;8.50;99.90;;;;;;6330026;22;20082;-95
2023/12/15 07:02:36;;;;;;;34.40;16.05;;;8.50;99.90;;;;;;6369854;22;20250;-94
2023/12/15 07:05:19;;;;;;;26.23;14.30;;;8.50;99.90;;;;;;6394123;22;20006;-95
2023/12/15 07:07:49;;;;;;;28.25;15.65;;;9.10;99.90;;;;;;6362150;22;20018;-94
2023/12/15 07:10:23;;;;;;;29.48;15.50;;;8.50;99.90;;;;;;6385461;22;20032;-94
2023/12/15 07:12:50;;;;;;;28.65;14.35;;;8.50;99.90;;;;;;6365572;22;20016;-94
2023/12/15 07:15:16;;;;;;;30.00;15.23;;;8.50;99.90;;;;;;6360468;22;20006;-93
2023/12/15 07:18:02;;;;;;;23.00;12.95;;;8.50;99.90;;;;;;6378239;22;20077;-94
2023/12/15 07:20:56;;;;;;;22.40;13.30;;;8.50;99.90;;;;;;6383908;22;19998;-94
2023/12/15 07:23:34;;;;;;;31.00;13.20;;;8.50;99.90;;;;;;6365307;22;20033;-95
2023/12/15 07:26:14;;;;;;;31.30;12.82;;;8.60;99.90;;;;;;6365142;22;20018;-95
2023/12/15 07:28:40;;;;;;;30.65;13.35;;;8.60;99.90;;;;;;6344506;22;20010;-89
2023/12/15 07:31:06;;;;;;;23.63;14.32;;;8.60;99.90;;;;;;6369632;22;20013;-89
2023/12/15 07:33:31;;;;;;;28.35;12.95;;;8.60;99.90;;;;;;6369600;22;20049;-90
2023/12/15 07:35:57;;;;;;;26.17;13.20;;;8.60;99.90;;;;;;6370696;22;20022;-91
2023/12/15 07:38:22;;;;;;;31.42;12.55;;;8.60;99.90;;;;;;6370019;22;20007;-89
2023/12/15 07:40:53;;;;;;;34.08;13.50;;;8.60;99.90;;;;;;6369901;22;20030;-89
2023/12/15 07:43:19;;;;;;;22.95;11.95;;;8.60;99.90;;;;;;6370631;22;19998;-90
2023/12/15 07:45:44;;;;;;;22.88;11.38;;;8.60;99.90;;;;;;6369129;22;20006;-91
2023/12/15 07:48:10;;;;;;;28.52;11.43;;;8.60;99.90;;;;;;6371067;22;20074;-89
2023/12/15 07:50:36;;;;;;;19.98;11.35;;;8.70;99.90;;;;;;6371314;22;20002;-91
2023/12/15 07:53:01;;;;;;;31.95;11.90;;;8.70;99.90;;;;;;6370895;22;20370;-87
2023/12/15 07:55:28;;;;;;;27.60;11.52;;;8.70;99.90;;;;;;6369858;22;19994;-88
2023/12/15 07:57:54;;;;;;;24.73;11.07;;;8.70;99.90;;;;;;6370077;22;20010;-91
2023/12/15 08:00:19;;;;;;;27.75;11.23;;;8.70;99.90;;;;;;6372710;22;20520;-88
2023/12/15 08:02:45;;;;;;;26.33;10.52;;;8.60;99.90;;;;;;6369307;22;20059;-89
2023/12/15 08:05:11;;;;;;;26.48;10.15;;;8.60;99.90;;;;;;6369329;22;20081;-89
2023/12/15 08:07:38;;;;;;;24.08;11.07;;;8.60;99.90;;;;;;6385879;22;20002;-93
2023/12/15 08:10:04;;;;;;;25.80;11.30;;;8.50;99.90;;;;;;6372435;22;19994;-89
2023/12/15 08:12:31;;;;;;;31.48;10.45;;;8.60;99.90;;;;;;6370394;22;20048;-89
2023/12/15 08:14:56;;;;;;;28.90;12.43;;;8.50;99.90;;;;;;6371917;22;20077;-90
2023/12/15 08:17:22;;;;;;;26.27;10.02;;;8.50;99.90;;;;;;6370526;22;20322;-88
2023/12/15 08:19:47;;;;;;;30.98;10.65;;;8.60;99.90;;;;;;6368399;22;19994;-89
2023/12/15 08:22:13;;;;;;;23.38;9.65;;;8.60;99.90;;;;;;6369534;22;20017;-88
2023/12/15 08:24:39;;;;;;;22.38;9.48;;;8.60;99.90;;;;;;6369015;22;20020;-85
2023/12/15 08:27:06;;;;;;;28.85;10.48;;;8.60;99.90;;;;;;6372656;22;20085;-93
2023/12/15 08:29:31;;;;;;;27.60;10.93;;;8.60;99.90;;;;;;6374051;22;20021;-90
2023/12/15 08:31:57;;;;;;;24.52;9.43;;;8.60;99.90;;;;;;6374078;22;20002;-91
2023/12/15 08:34:23;;;;;;;26.05;9.73;;;8.60;99.90;;;;;;6373246;22;20014;-93
2023/12/15 08:36:49;;;;;;;23.05;8.43;;;8.70;99.90;;;;;;6376067;22;20002;-93
2023/12/15 08:39:16;;;;;;;30.10;9.68;;;8.70;99.90;;;;;;6374995;22;20420;-92
2023/12/15 08:41:41;;;;;;;18.88;8.05;;;8.70;99.90;;;;;;6373313;22;20055;-87
2023/12/15 08:44:07;;;;;;;22.30;8.20;;;8.70;99.90;;;;;;6371218;22;20041;-93
2023/12/15 08:46:32;;;;;;;23.13;8.25;;;8.70;99.90;;;;;;6368924;22;20607;-85
2023/12/15 08:48:58;;;;;;;26.77;9.02;;;8.70;99.90;;;;;;6369276;22;20013;-89
2023/12/15 08:51:23;;;;;;;22.83;8.73;;;8.70;99.90;;;;;;6369565;22;19994;-88
2023/12/15 08:53:49;;;;;;;21.25;9.35;;;8.80;99.90;;;;;;6370565;22;19994;-84
2023/12/15 08:56:15;;;;;;;24.75;7.75;;;8.80;99.90;;;;;;6382975;22;20054;-85
2023/12/15 08:58:40;;;;;;;30.13;8.43;;;8.80;99.90;;;;;;6378246;22;20437;-85
2023/12/15 09:01:06;;;;;;;22.70;7.18;;;8.80;99.90;;;;;;6375828;22;20002;-88
2023/12/15 09:03:31;;;;;;;25.75;7.20;;;8.80;99.90;;;;;;6370016;22;20002;-86
2023/12/15 09:05:57;;;;;;;19.15;8.15;;;8.80;99.90;;;;;;6368127;22;20006;-86
2023/12/15 09:08:22;;;;;;;25.48;7.85;;;8.80;99.90;;;;;;6366447;22;20038;-86
2023/12/15 09:10:50;;;;;;;27.65;8.15;;;8.70;99.90;;;;;;6364799;22;20296;-87
2023/12/15 09:13:17;;;;;;;31.05;8.68;;;8.80;99.90;;;;;;6368844;22;20002;-86
2023/12/15 09:15:43;;;;;;;27.98;8.57;;;8.80;99.90;;;;;;6367882;22;20025;-86
2023/12/15 09:18:09;;;;;;;21.40;7.53;;;8.80;99.90;;;;;;6367475;22;19998;-88
2023/12/15 09:20:35;;;;;;;22.75;8.32;;;8.80;99.90;;;;;;6369109;22;20047;-88
2023/12/15 09:23:07;;;;;;;20.58;7.57;;;8.80;99.90;;;;;;6367474;22;19995;-86
2023/12/15 09:25:33;;;;;;;21.85;8.50;;;8.80;99.90;;;;;;6368390;22;20075;-86
2023/12/15 09:27:59;;;;;;;21.70;6.68;;;8.80;99.90;;;;;;6369308;22;20003;-86
2023/12/15 09:30:26;;;;;;;19.50;6.82;;;8.80;99.90;;;;;;6368428;22;20037;-87
2023/12/15 09:32:52;;;;;;;33.97;8.32;;;8.80;99.90;;;;;;6368157;22;20415;-86
2023/12/15 09:35:17;;;;;;;19.38;6.97;;;8.90;99.90;;;;;;6370969;22;20010;-87
2023/12/15 09:37:43;;;;;;;29.73;7.85;;;8.80;99.90;;;;;;6368466;22;20017;-87
2023/12/15 09:40:10;;;;;;;23.38;6.93;;;8.90;99.90;;;;;;6371403;22;20010;-87
2023/12/15 09:42:35;;;;;;;19.00;6.72;;;8.90;99.90;;;;;;6370331;22;20002;-87
2023/12/15 09:45:01;;;;;;;24.17;7.72;;;8.90;99.90;;;;;;6370517;22;20051;-87
2023/12/15 09:47:28;;;;;;;20.88;7.85;;;9.00;99.90;;;;;;6371125;22;20006;-87
2023/12/15 09:50:01;;;;;;;21.10;7.35;;;9.00;99.90;;;;;;6369474;22;20007;-87
2023/12/15 09:52:30;;;;;;;25.92;7.55;;;8.90;99.90;;;;;;6369923;22;20067;-87
2023/12/15 09:54:56;;;;;;;17.05;6.32;;;9.00;99.90;;;;;;6377068;22;20076;-87
2023/12/15 09:57:23;;;;;;;20.02;6.18;;;9.00;99.90;;;;;;6374174;22;20002;-86
2023/12/15 09:59:49;;;;;;;22.92;7.03;;;9.00;99.90;;;;;;6368360;22;20054;-88
2023/12/15 10:02:16;;;;;;;20.30;6.00;;;9.00;99.90;;;;;;6370794;22;20030;-87
2023/12/15 10:04:41;;;;;;;14.95;5.57;;;9.00;99.90;;;;;;6369370;22;20009;-87
2023/12/15 10:07:07;;;;;;;21.73;5.70;;;9.10;99.90;;;;;;6370249;22;20010;-86
2023/12/15 10:09:37;;;;;;;18.50;4.90;;;9.10;99.90;;;;;;6369397;22;20016;-88
2023/12/15 10:12:02;;;;;;;24.27;5.70;;;9.10;99.90;;;;;;6368863;22;20033;-87
2023/12/15 10:14:28;;;;;;;20.85;5.57;;;9.10;99.90;;;;;;6370465;22;20029;-86
2023/12/15 10:16:53;;;;;;;16.75;6.55;;;9.10;99.90;;;;;;6388328;22;20040;-86
2023/12/15 10:19:23;;;;;;;17.20;5.88;;;9.10;99.90;;;;;;6381098;22;20006;-88
2023/12/15 10:21:49;;;;;;;17.73;5.30;;;9.20;99.90;;;;;;6371341;22;20094;-88
2023/12/15 10:24:20;;;;;;;16.63;5.78;;;9.10;99.90;;;;;;6368994;22;20229;-88
2023/12/15 10:26:46;;;;;;;22.30;5.50;;;9.20;99.90;;;;;;6369947;22;20006;-87
2023/12/15 10:29:13;;;;;;;25.15;6.10;;;9.20;99.90;;;;;;6368551;22;20005;-88
2023/12/15 10:31:39;;;;;;;19.33;5.68;;;9.10;99.90;;;;;;6371005;22;20032;-89
2023/12/15 10:34:05;;;;;;;21.20;5.38;;;9.20;99.90;;;;;;6369802;22;20396;-86
2023/12/15 10:36:33;;;;;;;21.38;6.32;;;9.20;99.90;;;;;;6368431;22;20009;-85
2023/12/15 10:39:00;;;;;;;21.15;5.28;;;9.30;99.90;;;;;;6367337;22;20073;-85
2023/12/15 10:41:30;;;;;;;20.15;4.80;;;9.30;99.90;;;;;;6366238;22;20003;-85
2023/12/15 10:44:00;;;;;;;18.75;5.05;;;9.30;99.90;;;;;;6366717;22;20006;-86
2023/12/15 10:46:27;;;;;;;17.10;5.30;;;9.30;99.90;;;;;;6368165;22;20087;-85
2023/12/15 10:48:54;;;;;;;18.70;5.40;;;9.30;99.90;;;;;;6371832;22;20006;-85
2023/12/15 10:51:20;;;;;;;15.82;4.97;;;9.30;99.90;;;;;;6367286;22;20013;-87
2023/12/15 10:53:48;;;;;;;16.67;4.70;;;9.30;99.90;;;;;;6367214;22;20371;-86
2023/12/15 10:56:15;;;;;;;16.48;5.28;;;9.40;99.90;;;;;;6368656;22;20003;-87
2023/12/15 10:58:43;;;;;;;30.25;7.38;;;9.40;99.90;;;;;;6367145;22;20006;-85
2023/12/15 11:01:10;;;;;;;19.75;4.57;;;9.40;99.90;;;;;;6365361;22;20348;-85
2023/12/15 11:03:37;;;;;;;15.98;4.03;;;9.40;99.90;;;;;;6366876;22;19999;-87
2023/12/15 11:06:05;;;;;;;18.17;4.78;;;9.40;99.90;;;;;;6370101;22;20140;-86
2023/12/15 11:08:31;;;;;;;16.67;5.25;;;9.50;99.90;;;;;;6367427;22;20139;-87
2023/12/15 11:10:57;;;;;;;18.95;4.45;;;9.40;99.90;;;;;;6366501;22;19998;-85
2023/12/15 11:14:01;;;;;;;18.27;4.22;;;9.40;99.90;;;;;;6367620;22;20453;-87
2023/12/15 11:16:32;;;;;;;14.68;4.90;;;9.50;99.90;;;;;;6366317;22;20002;-86
2023/12/15 11:19:01;;;;;;;21.00;5.00;;;9.50;99.90;;;;;;6367366;22;19998;-86
2023/12/15 11:21:30;;;;;;;9.70;4.13;;;9.50;99.90;;;;;;6366521;22;20008;-86
2023/12/15 11:24:04;;;;;;;19.13;4.55;;;9.50;99.90;;;;;;6366574;22;20361;-87
2023/12/15 11:26:32;;;;;;;22.42;5.60;;;9.50;99.90;;;;;;6369106;22;20006;-86
2023/12/15 11:29:08;;;;;;;20.13;5.10;;;9.50;99.90;;;;;;6369537;22;20364;-86
2023/12/15 11:31:35;;;;;;;18.23;4.32;;;9.50;99.90;;;;;;6369037;22;20033;-86
2023/12/15 11:34:03;;;;;;;19.17;4.38;;;9.50;99.90;;;;;;6369194;22;20457;-86
2023/12/15 11:36:31;;;;;;;20.35;5.35;;;9.60;99.90;;;;;;6380228;22;19994;-85
2023/12/15 11:38:58;;;;;;;19.95;3.92;;;9.50;99.90;;;;;;6398300;22;20006;-85
2023/12/15 11:41:24;;;;;;;23.08;4.22;;;10.30;99.90;;;;;;6388580;22;20006;-85
2023/12/15 11:43:51;;;;;;;11.18;3.28;;;9.50;99.90;;;;;;6376384;22;20003;-87
2023/12/15 11:46:20;;;;;;;17.95;3.30;;;9.60;99.90;;;;;;6360175;22;20013;-86
2023/12/15 11:48:45;;;;;;;13.75;3.20;;;9.60;99.90;;;;;;6371964;22;20018;-87
2023/12/15 11:51:11;;;;;;;11.68;4.05;;;9.70;99.90;;;;;;6369423;22;20311;-86
2023/12/15 11:53:41;;;;;;;12.85;4.05;;;9.70;99.90;;;;;;6371518;22;19995;-87
2023/12/15 11:56:08;;;;;;;13.40;3.90;;;9.70;99.90;;;;;;6370310;22;20465;-87
2023/12/15 11:58:35;;;;;;;17.63;4.72;;;9.70;99.90;;;;;;6370820;22;19998;-86
2023/12/15 12:01:02;;;;;;;19.13;4.60;;;9.70;99.90;;;;;;6371221;22;19998;-86
2023/12/15 12:03:31;;;;;;;17.00;4.18;;;9.70;99.90;;;;;;6371839;22;20034;-85
2023/12/15 12:06:04;;;;;;;16.63;3.80;;;9.80;99.90;;;;;;6369168;22;20435;-85
2023/12/15 12:08:33;;;;;;;10.73;4.13;;;9.80;99.90;;;;;;6370340;22;19998;-85
2023/12/15 12:10:59;;;;;;;14.55;4.68;;;9.80;99.90;;;;;;6370763;22;19998;-85
2023/12/15 12:13:35;;;;;;;15.32;4.00;;;9.80;99.90;;;;;;6370331;22;20422;-85
2023/12/15 12:16:02;;;;;;;12.68;4.28;;;9.80;99.90;;;;;;6370493;22;20069;-85
2023/12/15 12:18:29;;;;;;;9.32;2.80;;;9.90;99.90;;;;;;6369985;22;20395;-85
2023/12/15 12:21:02;;;;;;;9.85;3.40;;;9.90;99.90;;;;;;6342895;22;20006;-85
2023/12/15 12:23:30;;;;;;;12.30;3.10;;;9.90;99.90;;;;;;6370720;22;20018;-86
2023/12/15 12:25:57;;;;;;;13.48;3.20;;;9.90;99.90;;;;;;6369771;22;20491;-87
2023/12/15 12:28:25;;;;;;;15.38;2.72;;;9.90;99.90;;;;;;6370108;22;20430;-86
2023/12/15 12:30:52;;;;;;;10.98;3.17;;;10.00;99.90;;;;;;6371368;22;20003;-85
2023/12/15 12:33:19;;;;;;;14.65;2.90;;;10.00;99.90;;;;;;6371364;22;20122;-86
2023/12/15 12:35:45;;;;;;;11.07;2.45;;;10.00;99.90;;;;;;6371828;22;20081;-87
2023/12/15 12:38:10;;;;;;;10.75;2.67;;;10.00;99.90;;;;;;6370061;22;19998;-87
2023/12/15 12:40:36;;;;;;;12.07;2.03;;;10.00;99.90;;;;;;6369329;22;20439;-87
2023/12/15 12:43:02;;;;;;;8.70;1.88;;;9.90;99.90;;;;;;6369948;22;19998;-86
2023/12/15 12:45:28;;;;;;;4.80;2.15;;;10.00;99.90;;;;;;6371004;22;19998;-87
2023/12/15 12:47:54;;;;;;;11.48;1.92;;;10.00;99.90;;;;;;6370108;22;20010;-87
2023/12/15 12:50:21;;;;;;;7.80;2.53;;;10.10;99.90;;;;;;6370372;22;19998;-87